John D. Leitch — VGWM — position and weather

sailwx.info

Track history (hours):
 
Tides and Currents Weather Stations Pressure Air Temp Water Temp Dewpoint Dewpoint Depression Visibility Wind Speed Wind Dir Waves Ship Positions

John D. Leitch

ex Canadian Century

Last reported at 2018-May-19 01:25 UTC. Time now 2018-May-27 08:11 UTC.
Position N 45°25' W 083°20'.
Warning: this ship's position is 8 days out of date.

Length 222 m; draft 8 m.

Type: Cargo ship. MMSI: 316001701.

Date/timePositionNaut miles runAvg speedWind from/ knotsBaromVisibWave heightAir tempDewpointWater temp
2018-May-19 01:25N 45°25' W 083°20'511.8
2018-May-19 01:00N 45°27' W 083°27'611.8
2018-May-19 00:30N 45°29' W 083°35'611.8
2018-May-19 00:00N 45°31' W 083°43'611.8
2018-May-18 23:29N 45°34' W 083°50'2311.1
2018-May-18 21:27N 45°41' W 084°21'510.6
2018-May-18 21:00N 45°42' W 084°28'510.7
2018-May-18 20:30N 45°45' W 084°34'611.1
2018-May-18 20:00N 45°48' W 084°41'510.5
2018-May-18 19:30N 45°49' W 084°48'611.0
2018-May-18 19:00N 45°50' W 084°56'611.3
2018-May-18 18:30N 45°51' W 085°04'611.2
2018-May-18 18:00N 45°52' W 085°12'511.1
2018-May-18 17:30N 45°52' W 085°20'611.1
2018-May-18 17:00N 45°53' W 085°28'510.6
2018-May-18 16:30N 45°53' W 085°35'611.1
2018-May-18 16:00N 45°51' W 085°43'611.3
2018-May-18 15:27N 45°48' W 085°51'  
2018-May-12 12:42N 45°43' W 086°02'312.0
2018-May-12 12:28N 45°44' W 085°59'612.2
2018-May-12 12:00N 45°47' W 085°51'612.1
2018-May-12 11:30N 45°50' W 085°44'611.9
2018-May-12 10:59N 45°53' W 085°36'511.6
2018-May-12 10:30N 45°54' W 085°28'612.0
2018-May-12 10:00N 45°53' W 085°20'612.1
2018-May-12 09:31N 45°52' W 085°11'612.2
2018-May-12 09:00N 45°51' W 085°03'612.2
2018-May-12 08:31N 45°50' W 084°54'612.3
2018-May-12 08:00N 45°49' W 084°45'611.8
2018-May-12 07:28N 45°46' W 084°37'612.0
2018-May-12 06:59N 45°43' W 084°30'811.5
2018-May-12 06:18N 45°41' W 084°19'1811.8
2018-May-12 04:44N 45°34' W 083°55'312.2
2018-May-12 04:30N 45°33' W 083°51'712.1
2018-May-12 03:57N 45°30' W 083°42'612.1
2018-May-12 03:29N 45°27' W 083°35'811.9
2018-May-12 02:48N 45°24' W 083°25'  
Track history (hours):
 
Tides and Currents Weather Stations Pressure Air Temp Water Temp Dewpoint Dewpoint Depression Visibility Wind Speed Wind Dir Waves Ship Positions

John D. Leitch

ex Canadian Century

Last reported at 2018-May-19 01:25 UTC. Time now 2018-May-27 08:11 UTC.
Position N 45°25' W 083°20'.
Warning: this ship's position is 8 days out of date.

Length 222 m; draft 8 m.

Type: Cargo ship. MMSI: 316001701.

Date/timePositionNaut miles runAvg speedWind from/ knotsBaromVisibWave heightAir tempDewpointWater temp
2018-May-19 01:25N 45°25' W 083°20'511.8
2018-May-19 01:00N 45°27' W 083°27'611.8
2018-May-19 00:30N 45°29' W 083°35'611.8
2018-May-19 00:00N 45°31' W 083°43'611.8
2018-May-18 23:29N 45°34' W 083°50'2311.1
2018-May-18 21:27N 45°41' W 084°21'510.6
2018-May-18 21:00N 45°42' W 084°28'510.7
2018-May-18 20:30N 45°45' W 084°34'611.1
2018-May-18 20:00N 45°48' W 084°41'510.5
2018-May-18 19:30N 45°49' W 084°48'611.0
2018-May-18 19:00N 45°50' W 084°56'611.3
2018-May-18 18:30N 45°51' W 085°04'611.2
2018-May-18 18:00N 45°52' W 085°12'511.1
2018-May-18 17:30N 45°52' W 085°20'611.1
2018-May-18 17:00N 45°53' W 085°28'510.6
2018-May-18 16:30N 45°53' W 085°35'611.1
2018-May-18 16:00N 45°51' W 085°43'611.3
2018-May-18 15:27N 45°48' W 085°51'  
2018-May-12 12:42N 45°43' W 086°02'312.0
2018-May-12 12:28N 45°44' W 085°59'612.2
2018-May-12 12:00N 45°47' W 085°51'612.1
2018-May-12 11:30N 45°50' W 085°44'611.9
2018-May-12 10:59N 45°53' W 085°36'511.6
2018-May-12 10:30N 45°54' W 085°28'612.0
2018-May-12 10:00N 45°53' W 085°20'612.1
2018-May-12 09:31N 45°52' W 085°11'612.2
2018-May-12 09:00N 45°51' W 085°03'612.2
2018-May-12 08:31N 45°50' W 084°54'612.3
2018-May-12 08:00N 45°49' W 084°45'611.8
2018-May-12 07:28N 45°46' W 084°37'612.0
2018-May-12 06:59N 45°43' W 084°30'811.5
2018-May-12 06:18N 45°41' W 084°19'1811.8
2018-May-12 04:44N 45°34' W 083°55'312.2
2018-May-12 04:30N 45°33' W 083°51'712.1
2018-May-12 03:57N 45°30' W 083°42'612.1
2018-May-12 03:29N 45°27' W 083°35'811.9
2018-May-12 02:48N 45°24' W 083°25'  

Dump ship's entire track history